sensor_id;sensor_type;location;lat;lon;timestamp;P1;durP1;ratioP1;P2;durP2;ratioP2
7517;SDS011;3800;48.922;9.444;2023-04-07T00:00:37;7.30;;;6.60;;
7517;SDS011;3800;48.922;9.444;2023-04-07T00:03:05;7.03;;;6.33;;
7517;SDS011;3800;48.922;9.444;2023-04-07T00:05:34;7.27;;;6.57;;
7517;SDS011;3800;48.922;9.444;2023-04-07T00:08:03;7.60;;;6.90;;
7517;SDS011;3800;48.922;9.444;2023-04-07T00:10:31;7.50;;;6.80;;
7517;SDS011;3800;48.922;9.444;2023-04-07T00:12:59;7.17;;;6.47;;
7517;SDS011;3800;48.922;9.444;2023-04-07T00:15:27;8.17;;;7.20;;
7517;SDS011;3800;48.922;9.444;2023-04-07T00:17:56;7.60;;;6.83;;
7517;SDS011;3800;48.922;9.444;2023-04-07T00:20:24;8.10;;;7.30;;
7517;SDS011;3800;48.922;9.444;2023-04-07T00:22:52;7.47;;;6.77;;
7517;SDS011;3800;48.922;9.444;2023-04-07T00:25:20;10.77;;;7.33;;
7517;SDS011;3800;48.922;9.444;2023-04-07T00:27:49;8.90;;;7.33;;
7517;SDS011;3800;48.922;9.444;2023-04-07T00:30:17;8.23;;;6.97;;
7517;SDS011;3800;48.922;9.444;2023-04-07T00:32:45;8.70;;;7.83;;
7517;SDS011;3800;48.922;9.444;2023-04-07T00:35:13;8.20;;;7.30;;
7517;SDS011;3800;48.922;9.444;2023-04-07T00:37:42;8.80;;;7.83;;
7517;SDS011;3800;48.922;9.444;2023-04-07T00:40:10;8.43;;;7.63;;
7517;SDS011;3800;48.922;9.444;2023-04-07T00:42:38;11.77;;;7.40;;
7517;SDS011;3800;48.922;9.444;2023-04-07T00:45:07;8.40;;;7.60;;
7517;SDS011;3800;48.922;9.444;2023-04-07T00:47:36;8.10;;;7.30;;
7517;SDS011;3800;48.922;9.444;2023-04-07T00:50:04;8.27;;;7.47;;
7517;SDS011;3800;48.922;9.444;2023-04-07T00:52:33;7.80;;;7.00;;
7517;SDS011;3800;48.922;9.444;2023-04-07T00:55:01;9.03;;;7.63;;
7517;SDS011;3800;48.922;9.444;2023-04-07T00:57:30;8.30;;;7.40;;
7517;SDS011;3800;48.922;9.444;2023-04-07T00:59:58;8.20;;;7.37;;
7517;SDS011;3800;48.922;9.444;2023-04-07T01:02:30;8.20;;;7.13;;
7517;SDS011;3800;48.922;9.444;2023-04-07T01:08:07;8.83;;;7.60;;
7517;SDS011;3800;48.922;9.444;2023-04-07T01:10:51;8.17;;;7.37;;
7517;SDS011;3800;48.922;9.444;2023-04-07T01:13:37;8.00;;;7.07;;
7517;SDS011;3800;48.922;9.444;2023-04-07T01:16:08;8.00;;;7.20;;
7517;SDS011;3800;48.922;9.444;2023-04-07T01:18:36;7.80;;;7.00;;
7517;SDS011;3800;48.922;9.444;2023-04-07T01:21:06;7.90;;;6.97;;
7517;SDS011;3800;48.922;9.444;2023-04-07T01:23:47;7.40;;;6.70;;
7517;SDS011;3800;48.922;9.444;2023-04-07T01:26:17;7.60;;;6.87;;
7517;SDS011;3800;48.922;9.444;2023-04-07T01:31:49;7.93;;;7.07;;
7517;SDS011;3800;48.922;9.444;2023-04-07T01:34:17;8.47;;;6.53;;
7517;SDS011;3800;48.922;9.444;2023-04-07T01:36:45;7.00;;;5.93;;
7517;SDS011;3800;48.922;9.444;2023-04-07T01:39:13;8.27;;;6.37;;
7517;SDS011;3800;48.922;9.444;2023-04-07T01:41:41;7.47;;;6.33;;
7517;SDS011;3800;48.922;9.444;2023-04-07T01:44:10;10.10;;;6.17;;
7517;SDS011;3800;48.922;9.444;2023-04-07T01:46:38;6.93;;;6.23;;
7517;SDS011;3800;48.922;9.444;2023-04-07T01:49:06;6.60;;;6.00;;
7517;SDS011;3800;48.922;9.444;2023-04-07T01:51:34;6.73;;;6.00;;
7517;SDS011;3800;48.922;9.444;2023-04-07T01:54:03;7.30;;;5.83;;
7517;SDS011;3800;48.922;9.444;2023-04-07T01:56:31;7.00;;;6.30;;
7517;SDS011;3800;48.922;9.444;2023-04-07T01:58:59;5.93;;;5.33;;
7517;SDS011;3800;48.922;9.444;2023-04-07T02:01:28;7.70;;;5.97;;
7517;SDS011;3800;48.922;9.444;2023-04-07T02:04:04;6.63;;;6.03;;
7517;SDS011;3800;48.922;9.444;2023-04-07T02:06:36;7.37;;;6.03;;
7517;SDS011;3800;48.922;9.444;2023-04-07T02:09:03;7.17;;;6.07;;
7517;SDS011;3800;48.922;9.444;2023-04-07T02:11:31;7.90;;;5.93;;
7517;SDS011;3800;48.922;9.444;2023-04-07T02:13:59;6.93;;;6.03;;
7517;SDS011;3800;48.922;9.444;2023-04-07T02:16:28;7.93;;;6.43;;
7517;SDS011;3800;48.922;9.444;2023-04-07T02:18:57;7.03;;;6.30;;
7517;SDS011;3800;48.922;9.444;2023-04-07T02:21:26;7.17;;;6.47;;
7517;SDS011;3800;48.922;9.444;2023-04-07T02:23:54;7.13;;;6.33;;
7517;SDS011;3800;48.922;9.444;2023-04-07T02:26:22;7.77;;;6.27;;
7517;SDS011;3800;48.922;9.444;2023-04-07T02:28:50;7.40;;;6.70;;
7517;SDS011;3800;48.922;9.444;2023-04-07T02:31:19;7.37;;;6.50;;
7517;SDS011;3800;48.922;9.444;2023-04-07T02:33:47;7.37;;;6.67;;
7517;SDS011;3800;48.922;9.444;2023-04-07T02:36:15;7.70;;;6.90;;
7517;SDS011;3800;48.922;9.444;2023-04-07T02:38:44;7.07;;;6.37;;
7517;SDS011;3800;48.922;9.444;2023-04-07T02:41:12;8.90;;;6.53;;
7517;SDS011;3800;48.922;9.444;2023-04-07T02:43:40;8.93;;;7.10;;
7517;SDS011;3800;48.922;9.444;2023-04-07T02:46:08;9.50;;;6.87;;
7517;SDS011;3800;48.922;9.444;2023-04-07T02:48:37;7.43;;;6.63;;
7517;SDS011;3800;48.922;9.444;2023-04-07T02:51:05;7.10;;;6.40;;
7517;SDS011;3800;48.922;9.444;2023-04-07T02:53:33;8.23;;;7.23;;
7517;SDS011;3800;48.922;9.444;2023-04-07T02:56:01;8.23;;;7.20;;
7517;SDS011;3800;48.922;9.444;2023-04-07T02:58:30;7.83;;;7.00;;
7517;SDS011;3800;48.922;9.444;2023-04-07T03:00:58;7.57;;;6.87;;
7517;SDS011;3800;48.922;9.444;2023-04-07T03:03:26;8.57;;;7.07;;
7517;SDS011;3800;48.922;9.444;2023-04-07T03:05:55;8.80;;;7.03;;
7517;SDS011;3800;48.922;9.444;2023-04-07T03:08:23;7.57;;;6.77;;
7517;SDS011;3800;48.922;9.444;2023-04-07T03:10:51;8.10;;;6.53;;
7517;SDS011;3800;48.922;9.444;2023-04-07T03:13:19;9.73;;;7.37;;
7517;SDS011;3800;48.922;9.444;2023-04-07T03:15:48;8.80;;;7.57;;
7517;SDS011;3800;48.922;9.444;2023-04-07T03:18:16;8.07;;;7.07;;
7517;SDS011;3800;48.922;9.444;2023-04-07T03:20:46;8.00;;;7.17;;
7517;SDS011;3800;48.922;9.444;2023-04-07T03:23:12;8.70;;;7.57;;
7517;SDS011;3800;48.922;9.444;2023-04-07T03:25:41;8.90;;;7.77;;
7517;SDS011;3800;48.922;9.444;2023-04-07T03:28:09;9.60;;;7.80;;
7517;SDS011;3800;48.922;9.444;2023-04-07T03:30:37;8.67;;;7.77;;
7517;SDS011;3800;48.922;9.444;2023-04-07T03:33:05;8.87;;;7.83;;
7517;SDS011;3800;48.922;9.444;2023-04-07T03:35:34;8.63;;;7.67;;
7517;SDS011;3800;48.922;9.444;2023-04-07T03:38:02;9.47;;;8.43;;
7517;SDS011;3800;48.922;9.444;2023-04-07T03:40:30;9.37;;;7.97;;
7517;SDS011;3800;48.922;9.444;2023-04-07T03:42:58;8.90;;;7.87;;
7517;SDS011;3800;48.922;9.444;2023-04-07T03:45:27;10.57;;;8.77;;
7517;SDS011;3800;48.922;9.444;2023-04-07T03:47:55;9.33;;;8.33;;
7517;SDS011;3800;48.922;9.444;2023-04-07T03:50:23;9.13;;;7.97;;
7517;SDS011;3800;48.922;9.444;2023-04-07T03:52:51;9.23;;;8.23;;
7517;SDS011;3800;48.922;9.444;2023-04-07T03:55:20;11.87;;;9.13;;
7517;SDS011;3800;48.922;9.444;2023-04-07T03:57:48;11.23;;;8.93;;
7517;SDS011;3800;48.922;9.444;2023-04-07T04:00:16;10.43;;;9.33;;
7517;SDS011;3800;48.922;9.444;2023-04-07T04:02:44;10.30;;;9.20;;
7517;SDS011;3800;48.922;9.444;2023-04-07T04:05:13;11.43;;;9.23;;
7517;SDS011;3800;48.922;9.444;2023-04-07T04:07:41;11.47;;;9.57;;
7517;SDS011;3800;48.922;9.444;2023-04-07T04:10:09;11.50;;;9.57;;
7517;SDS011;3800;48.922;9.444;2023-04-07T04:12:37;10.47;;;9.13;;
7517;SDS011;3800;48.922;9.444;2023-04-07T04:15:06;11.60;;;9.73;;
7517;SDS011;3800;48.922;9.444;2023-04-07T04:17:35;12.00;;;9.80;;
7517;SDS011;3800;48.922;9.444;2023-04-07T04:20:03;11.07;;;9.90;;
7517;SDS011;3800;48.922;9.444;2023-04-07T04:22:32;10.47;;;8.97;;
7517;SDS011;3800;48.922;9.444;2023-04-07T04:25:01;11.37;;;9.83;;
7517;SDS011;3800;48.922;9.444;2023-04-07T04:27:29;10.40;;;9.40;;
7517;SDS011;3800;48.922;9.444;2023-04-07T04:29:58;11.63;;;9.63;;
7517;SDS011;3800;48.922;9.444;2023-04-07T04:32:26;12.53;;;9.67;;
7517;SDS011;3800;48.922;9.444;2023-04-07T04:34:54;12.60;;;9.97;;
7517;SDS011;3800;48.922;9.444;2023-04-07T04:37:23;11.47;;;9.37;;
7517;SDS011;3800;48.922;9.444;2023-04-07T04:39:51;12.03;;;9.77;;
7517;SDS011;3800;48.922;9.444;2023-04-07T04:42:19;11.50;;;9.80;;
7517;SDS011;3800;48.922;9.444;2023-04-07T04:44:47;11.50;;;9.47;;
7517;SDS011;3800;48.922;9.444;2023-04-07T04:47:16;10.50;;;9.47;;
7517;SDS011;3800;48.922;9.444;2023-04-07T04:49:44;11.03;;;9.63;;
7517;SDS011;3800;48.922;9.444;2023-04-07T04:52:12;11.10;;;9.90;;
7517;SDS011;3800;48.922;9.444;2023-04-07T04:54:40;12.07;;;9.93;;
7517;SDS011;3800;48.922;9.444;2023-04-07T04:57:09;10.63;;;9.17;;
7517;SDS011;3800;48.922;9.444;2023-04-07T04:59:37;12.20;;;10.10;;
7517;SDS011;3800;48.922;9.444;2023-04-07T05:02:05;12.13;;;10.03;;
7517;SDS011;3800;48.922;9.444;2023-04-07T05:04:33;10.97;;;9.40;;
7517;SDS011;3800;48.922;9.444;2023-04-07T05:07:02;11.70;;;9.70;;
7517;SDS011;3800;48.922;9.444;2023-04-07T05:09:30;12.87;;;10.50;;
7517;SDS011;3800;48.922;9.444;2023-04-07T05:11:58;11.33;;;10.13;;
7517;SDS011;3800;48.922;9.444;2023-04-07T05:14:26;11.20;;;9.50;;
7517;SDS011;3800;48.922;9.444;2023-04-07T05:16:55;11.80;;;10.60;;
7517;SDS011;3800;48.922;9.444;2023-04-07T05:19:23;12.23;;;10.60;;
7517;SDS011;3800;48.922;9.444;2023-04-07T05:21:51;15.40;;;11.00;;
7517;SDS011;3800;48.922;9.444;2023-04-07T05:24:19;13.87;;;10.77;;
7517;SDS011;3800;48.922;9.444;2023-04-07T05:26:48;13.03;;;10.80;;
7517;SDS011;3800;48.922;9.444;2023-04-07T05:29:16;11.40;;;10.30;;
7517;SDS011;3800;48.922;9.444;2023-04-07T05:31:44;11.27;;;10.03;;
7517;SDS011;3800;48.922;9.444;2023-04-07T05:34:12;12.13;;;10.90;;
7517;SDS011;3800;48.922;9.444;2023-04-07T05:36:41;12.17;;;10.53;;
7517;SDS011;3800;48.922;9.444;2023-04-07T05:39:09;12.30;;;10.67;;
7517;SDS011;3800;48.922;9.444;2023-04-07T05:41:37;13.40;;;11.17;;
7517;SDS011;3800;48.922;9.444;2023-04-07T05:44:06;12.30;;;11.00;;
7517;SDS011;3800;48.922;9.444;2023-04-07T05:46:35;18.80;;;12.27;;
7517;SDS011;3800;48.922;9.444;2023-04-07T05:49:03;13.80;;;10.80;;
7517;SDS011;3800;48.922;9.444;2023-04-07T05:51:31;12.47;;;11.17;;
7517;SDS011;3800;48.922;9.444;2023-04-07T05:54:00;12.27;;;10.97;;
7517;SDS011;3800;48.922;9.444;2023-04-07T05:56:28;12.40;;;10.87;;
7517;SDS011;3800;48.922;9.444;2023-04-07T05:58:56;12.60;;;11.17;;
7517;SDS011;3800;48.922;9.444;2023-04-07T06:01:24;13.67;;;11.03;;
7517;SDS011;3800;48.922;9.444;2023-04-07T06:03:52;12.60;;;11.30;;
7517;SDS011;3800;48.922;9.444;2023-04-07T06:06:21;16.07;;;11.17;;
7517;SDS011;3800;48.922;9.444;2023-04-07T06:08:49;14.67;;;11.23;;
7517;SDS011;3800;48.922;9.444;2023-04-07T06:11:17;12.93;;;10.63;;
7517;SDS011;3800;48.922;9.444;2023-04-07T06:13:45;12.00;;;10.60;;
7517;SDS011;3800;48.922;9.444;2023-04-07T06:16:14;13.10;;;11.47;;
7517;SDS011;3800;48.922;9.444;2023-04-07T06:18:42;12.83;;;10.60;;
7517;SDS011;3800;48.922;9.444;2023-04-07T06:21:10;13.47;;;11.53;;
7517;SDS011;3800;48.922;9.444;2023-04-07T06:23:38;13.67;;;11.53;;
7517;SDS011;3800;48.922;9.444;2023-04-07T06:26:09;13.73;;;11.23;;
7517;SDS011;3800;48.922;9.444;2023-04-07T06:28:37;13.00;;;11.37;;
7517;SDS011;3800;48.922;9.444;2023-04-07T06:31:06;13.73;;;11.60;;
7517;SDS011;3800;48.922;9.444;2023-04-07T06:33:34;14.27;;;11.63;;
7517;SDS011;3800;48.922;9.444;2023-04-07T06:36:02;14.13;;;11.93;;
7517;SDS011;3800;48.922;9.444;2023-04-07T06:38:31;15.80;;;12.10;;
7517;SDS011;3800;48.922;9.444;2023-04-07T06:40:59;14.43;;;11.57;;
7517;SDS011;3800;48.922;9.444;2023-04-07T06:43:27;12.50;;;11.20;;
7517;SDS011;3800;48.922;9.444;2023-04-07T06:45:56;13.70;;;12.27;;
7517;SDS011;3800;48.922;9.444;2023-04-07T06:48:24;15.10;;;12.23;;
7517;SDS011;3800;48.922;9.444;2023-04-07T06:50:53;13.77;;;12.33;;
7517;SDS011;3800;48.922;9.444;2023-04-07T06:53:22;15.03;;;12.47;;
7517;SDS011;3800;48.922;9.444;2023-04-07T06:55:50;15.03;;;12.00;;
7517;SDS011;3800;48.922;9.444;2023-04-07T06:58:18;14.53;;;12.57;;
7517;SDS011;3800;48.922;9.444;2023-04-07T07:00:47;14.27;;;12.00;;
7517;SDS011;3800;48.922;9.444;2023-04-07T07:03:15;13.43;;;12.03;;
7517;SDS011;3800;48.922;9.444;2023-04-07T07:05:43;16.00;;;12.87;;
7517;SDS011;3800;48.922;9.444;2023-04-07T07:08:11;14.13;;;11.90;;
7517;SDS011;3800;48.922;9.444;2023-04-07T07:10:40;16.30;;;12.37;;
7517;SDS011;3800;48.922;9.444;2023-04-07T07:13:08;17.07;;;12.83;;
7517;SDS011;3800;48.922;9.444;2023-04-07T07:15:36;14.70;;;12.33;;
7517;SDS011;3800;48.922;9.444;2023-04-07T07:18:04;11.87;;;10.33;;
7517;SDS011;3800;48.922;9.444;2023-04-07T07:20:33;12.63;;;10.83;;
7517;SDS011;3800;48.922;9.444;2023-04-07T07:23:01;15.17;;;12.03;;
7517;SDS011;3800;48.922;9.444;2023-04-07T07:25:29;12.90;;;11.57;;
7517;SDS011;3800;48.922;9.444;2023-04-07T07:27:57;14.23;;;11.70;;
7517;SDS011;3800;48.922;9.444;2023-04-07T07:30:26;12.67;;;10.97;;
7517;SDS011;3800;48.922;9.444;2023-04-07T07:32:54;12.50;;;10.43;;
7517;SDS011;3800;48.922;9.444;2023-04-07T07:35:22;12.50;;;10.97;;
7517;SDS011;3800;48.922;9.444;2023-04-07T07:37:50;11.27;;;10.07;;
7517;SDS011;3800;48.922;9.444;2023-04-07T07:40:19;13.03;;;10.73;;
7517;SDS011;3800;48.922;9.444;2023-04-07T07:42:47;12.70;;;10.53;;
7517;SDS011;3800;48.922;9.444;2023-04-07T07:45:15;12.07;;;10.40;;
7517;SDS011;3800;48.922;9.444;2023-04-07T07:47:44;11.93;;;10.73;;
7517;SDS011;3800;48.922;9.444;2023-04-07T07:50:12;12.10;;;10.90;;
7517;SDS011;3800;48.922;9.444;2023-04-07T07:52:40;14.10;;;10.27;;
7517;SDS011;3800;48.922;9.444;2023-04-07T07:55:08;10.97;;;9.87;;
7517;SDS011;3800;48.922;9.444;2023-04-07T07:57:37;13.00;;;11.60;;
7517;SDS011;3800;48.922;9.444;2023-04-07T08:00:05;12.40;;;10.53;;
7517;SDS011;3800;48.922;9.444;2023-04-07T08:02:34;12.67;;;10.43;;
7517;SDS011;3800;48.922;9.444;2023-04-07T08:05:03;11.70;;;10.50;;
7517;SDS011;3800;48.922;9.444;2023-04-07T08:07:31;11.33;;;10.10;;
7517;SDS011;3800;48.922;9.444;2023-04-07T08:09:59;12.13;;;10.13;;
7517;SDS011;3800;48.922;9.444;2023-04-07T08:12:28;10.90;;;9.53;;
7517;SDS011;3800;48.922;9.444;2023-04-07T08:14:56;12.47;;;10.37;;
7517;SDS011;3800;48.922;9.444;2023-04-07T08:17:24;11.93;;;9.70;;
7517;SDS011;3800;48.922;9.444;2023-04-07T08:19:53;10.50;;;9.10;;
7517;SDS011;3800;48.922;9.444;2023-04-07T08:22:21;10.17;;;9.17;;
7517;SDS011;3800;48.922;9.444;2023-04-07T08:24:50;10.57;;;9.33;;
7517;SDS011;3800;48.922;9.444;2023-04-07T08:27:18;11.27;;;8.83;;
7517;SDS011;3800;48.922;9.444;2023-04-07T08:30:04;10.07;;;9.07;;
7517;SDS011;3800;48.922;9.444;2023-04-07T08:32:36;10.10;;;9.07;;
7517;SDS011;3800;48.922;9.444;2023-04-07T08:35:05;9.23;;;8.10;;
7517;SDS011;3800;48.922;9.444;2023-04-07T08:37:33;9.57;;;8.50;;
7517;SDS011;3800;48.922;9.444;2023-04-07T08:40:02;9.50;;;8.13;;
7517;SDS011;3800;48.922;9.444;2023-04-07T08:42:31;8.97;;;7.93;;
7517;SDS011;3800;48.922;9.444;2023-04-07T08:45:03;10.13;;;8.43;;
7517;SDS011;3800;48.922;9.444;2023-04-07T08:47:30;9.50;;;8.50;;
7517;SDS011;3800;48.922;9.444;2023-04-07T08:50:00;10.73;;;8.30;;
7517;SDS011;3800;48.922;9.444;2023-04-07T08:52:31;9.20;;;8.13;;
7517;SDS011;3800;48.922;9.444;2023-04-07T08:55:01;9.43;;;8.33;;
7517;SDS011;3800;48.922;9.444;2023-04-07T08:57:29;8.43;;;7.30;;
7517;SDS011;3800;48.922;9.444;2023-04-07T08:59:59;9.00;;;7.90;;
7517;SDS011;3800;48.922;9.444;2023-04-07T09:02:28;8.27;;;7.20;;
7517;SDS011;3800;48.922;9.444;2023-04-07T09:04:57;9.40;;;7.20;;
7517;SDS011;3800;48.922;9.444;2023-04-07T09:07:25;8.27;;;7.47;;
7517;SDS011;3800;48.922;9.444;2023-04-07T09:09:54;8.60;;;7.63;;
7517;SDS011;3800;48.922;9.444;2023-04-07T09:12:22;8.03;;;7.23;;
7517;SDS011;3800;48.922;9.444;2023-04-07T09:14:51;8.00;;;7.20;;
7517;SDS011;3800;48.922;9.444;2023-04-07T09:17:19;8.63;;;7.80;;
7517;SDS011;3800;48.922;9.444;2023-04-07T09:19:47;8.17;;;7.37;;
7517;SDS011;3800;48.922;9.444;2023-04-07T09:22:19;8.87;;;7.10;;
7517;SDS011;3800;48.922;9.444;2023-04-07T09:24:43;8.40;;;7.23;;
7517;SDS011;3800;48.922;9.444;2023-04-07T09:27:13;8.27;;;7.37;;
7517;SDS011;3800;48.922;9.444;2023-04-07T09:29:41;9.83;;;7.93;;
7517;SDS011;3800;48.922;9.444;2023-04-07T09:32:09;9.10;;;7.53;;
7517;SDS011;3800;48.922;9.444;2023-04-07T09:34:38;9.73;;;8.10;;
7517;SDS011;3800;48.922;9.444;2023-04-07T09:37:06;13.07;;;7.90;;
7517;SDS011;3800;48.922;9.444;2023-04-07T09:39:47;8.23;;;7.30;;
7517;SDS011;3800;48.922;9.444;2023-04-07T09:42:18;8.50;;;7.60;;
7517;SDS011;3800;48.922;9.444;2023-04-07T09:44:45;8.97;;;7.47;;
7517;SDS011;3800;48.922;9.444;2023-04-07T09:47:14;8.80;;;6.83;;
7517;SDS011;3800;48.922;9.444;2023-04-07T09:49:48;9.40;;;7.63;;
7517;SDS011;3800;48.922;9.444;2023-04-07T09:52:21;8.97;;;7.53;;
7517;SDS011;3800;48.922;9.444;2023-04-07T09:54:49;9.40;;;8.00;;
7517;SDS011;3800;48.922;9.444;2023-04-07T09:57:17;9.40;;;7.33;;
7517;SDS011;3800;48.922;9.444;2023-04-07T09:59:45;8.40;;;6.80;;
7517;SDS011;3800;48.922;9.444;2023-04-07T10:02:14;7.97;;;7.20;;
7517;SDS011;3800;48.922;9.444;2023-04-07T10:04:42;11.73;;;8.23;;
7517;SDS011;3800;48.922;9.444;2023-04-07T10:07:11;7.87;;;7.07;;
7517;SDS011;3800;48.922;9.444;2023-04-07T10:09:39;9.37;;;7.30;;
7517;SDS011;3800;48.922;9.444;2023-04-07T10:12:07;11.47;;;7.53;;
7517;SDS011;3800;48.922;9.444;2023-04-07T10:14:35;9.87;;;7.27;;
7517;SDS011;3800;48.922;9.444;2023-04-07T10:17:04;7.27;;;6.23;;
7517;SDS011;3800;48.922;9.444;2023-04-07T10:19:32;7.20;;;6.33;;
7517;SDS011;3800;48.922;9.444;2023-04-07T10:22:01;8.67;;;6.90;;
7517;SDS011;3800;48.922;9.444;2023-04-07T10:24:36;7.10;;;5.97;;
7517;SDS011;3800;48.922;9.444;2023-04-07T10:27:03;7.20;;;6.50;;
7517;SDS011;3800;48.922;9.444;2023-04-07T10:29:30;7.43;;;6.40;;
7517;SDS011;3800;48.922;9.444;2023-04-07T10:32:00;8.40;;;7.37;;
7517;SDS011;3800;48.922;9.444;2023-04-07T10:37:24;9.20;;;6.30;;
7517;SDS011;3800;48.922;9.444;2023-04-07T10:42:58;7.57;;;6.10;;
7517;SDS011;3800;48.922;9.444;2023-04-07T10:46:04;7.53;;;6.20;;
7517;SDS011;3800;48.922;9.444;2023-04-07T10:48:19;8.30;;;6.60;;
7517;SDS011;3800;48.922;9.444;2023-04-07T10:51:21;8.23;;;6.10;;
7517;SDS011;3800;48.922;9.444;2023-04-07T10:57:08;7.40;;;5.70;;
7517;SDS011;3800;48.922;9.444;2023-04-07T10:59:25;6.10;;;5.43;;
7517;SDS011;3800;48.922;9.444;2023-04-07T11:04:53;6.33;;;5.37;;
7517;SDS011;3800;48.922;9.444;2023-04-07T11:07:41;8.60;;;5.70;;
7517;SDS011;3800;48.922;9.444;2023-04-07T11:09:50;7.87;;;5.50;;
7517;SDS011;3800;48.922;9.444;2023-04-07T11:12:21;6.90;;;5.27;;
7517;SDS011;3800;48.922;9.444;2023-04-07T11:14:50;5.50;;;4.60;;
7517;SDS011;3800;48.922;9.444;2023-04-07T11:17:19;6.60;;;4.90;;
7517;SDS011;3800;48.922;9.444;2023-04-07T11:19:49;6.63;;;4.50;;
7517;SDS011;3800;48.922;9.444;2023-04-07T11:22:19;6.70;;;4.77;;
7517;SDS011;3800;48.922;9.444;2023-04-07T11:24:48;6.47;;;5.17;;
7517;SDS011;3800;48.922;9.444;2023-04-07T11:27:17;5.43;;;4.90;;
7517;SDS011;3800;48.922;9.444;2023-04-07T11:29:44;6.83;;;5.30;;
7517;SDS011;3800;48.922;9.444;2023-04-07T11:32:12;7.43;;;4.77;;
7517;SDS011;3800;48.922;9.444;2023-04-07T11:34:41;5.70;;;4.67;;
7517;SDS011;3800;48.922;9.444;2023-04-07T11:39:53;6.03;;;4.53;;
7517;SDS011;3800;48.922;9.444;2023-04-07T11:42:39;8.50;;;5.23;;
7517;SDS011;3800;48.922;9.444;2023-04-07T11:47:42;8.87;;;5.13;;
7517;SDS011;3800;48.922;9.444;2023-04-07T11:50:10;6.67;;;4.60;;
7517;SDS011;3800;48.922;9.444;2023-04-07T11:52:40;6.53;;;4.97;;
7517;SDS011;3800;48.922;9.444;2023-04-07T11:57:47;6.83;;;4.20;;
7517;SDS011;3800;48.922;9.444;2023-04-07T12:00:15;5.07;;;3.70;;
7517;SDS011;3800;48.922;9.444;2023-04-07T12:02:46;7.30;;;4.10;;
7517;SDS011;3800;48.922;9.444;2023-04-07T12:05:14;4.97;;;4.10;;
7517;SDS011;3800;48.922;9.444;2023-04-07T12:07:51;7.53;;;3.97;;
7517;SDS011;3800;48.922;9.444;2023-04-07T12:10:17;4.00;;;3.70;;
7517;SDS011;3800;48.922;9.444;2023-04-07T12:12:46;6.37;;;3.80;;
7517;SDS011;3800;48.922;9.444;2023-04-07T12:15:14;4.23;;;3.83;;
7517;SDS011;3800;48.922;9.444;2023-04-07T12:17:44;6.73;;;3.90;;
7517;SDS011;3800;48.922;9.444;2023-04-07T12:20:13;6.73;;;3.60;;
7517;SDS011;3800;48.922;9.444;2023-04-07T12:22:42;5.07;;;3.53;;
7517;SDS011;3800;48.922;9.444;2023-04-07T12:25:10;5.50;;;3.37;;
7517;SDS011;3800;48.922;9.444;2023-04-07T12:27:39;4.33;;;3.23;;
7517;SDS011;3800;48.922;9.444;2023-04-07T12:30:08;6.43;;;3.10;;
7517;SDS011;3800;48.922;9.444;2023-04-07T12:32:36;5.97;;;3.10;;
7517;SDS011;3800;48.922;9.444;2023-04-07T12:35:05;6.03;;;2.93;;
7517;SDS011;3800;48.922;9.444;2023-04-07T12:37:33;4.60;;;3.00;;
7517;SDS011;3800;48.922;9.444;2023-04-07T12:40:02;2.90;;;2.60;;
7517;SDS011;3800;48.922;9.444;2023-04-07T12:42:30;5.77;;;2.80;;
7517;SDS011;3800;48.922;9.444;2023-04-07T12:44:59;4.50;;;2.80;;
7517;SDS011;3800;48.922;9.444;2023-04-07T12:47:27;6.13;;;3.43;;
7517;SDS011;3800;48.922;9.444;2023-04-07T12:49:56;4.33;;;3.10;;
7517;SDS011;3800;48.922;9.444;2023-04-07T12:52:24;4.20;;;3.20;;
7517;SDS011;3800;48.922;9.444;2023-04-07T12:54:52;5.50;;;3.20;;
7517;SDS011;3800;48.922;9.444;2023-04-07T12:57:20;6.33;;;4.00;;
7517;SDS011;3800;48.922;9.444;2023-04-07T12:59:49;4.17;;;3.27;;
7517;SDS011;3800;48.922;9.444;2023-04-07T13:02:17;4.67;;;3.77;;
7517;SDS011;3800;48.922;9.444;2023-04-07T13:04:46;5.47;;;4.63;;
7517;SDS011;3800;48.922;9.444;2023-04-07T13:07:15;4.07;;;3.33;;
7517;SDS011;3800;48.922;9.444;2023-04-07T13:09:44;5.67;;;3.80;;
7517;SDS011;3800;48.922;9.444;2023-04-07T13:12:12;6.47;;;3.87;;
7517;SDS011;3800;48.922;9.444;2023-04-07T13:14:41;5.77;;;3.43;;
7517;SDS011;3800;48.922;9.444;2023-04-07T13:17:09;5.27;;;3.63;;
7517;SDS011;3800;48.922;9.444;2023-04-07T13:19:38;6.63;;;3.57;;
7517;SDS011;3800;48.922;9.444;2023-04-07T13:22:06;6.73;;;4.00;;
7517;SDS011;3800;48.922;9.444;2023-04-07T13:24:34;4.43;;;3.83;;
7517;SDS011;3800;48.922;9.444;2023-04-07T13:27:03;6.97;;;3.90;;
7517;SDS011;3800;48.922;9.444;2023-04-07T13:29:35;5.20;;;4.23;;
7517;SDS011;3800;48.922;9.444;2023-04-07T13:32:04;6.13;;;4.33;;
7517;SDS011;3800;48.922;9.444;2023-04-07T13:34:38;5.17;;;3.90;;
7517;SDS011;3800;48.922;9.444;2023-04-07T13:37:08;5.90;;;4.60;;
7517;SDS011;3800;48.922;9.444;2023-04-07T13:39:36;6.83;;;4.57;;
7517;SDS011;3800;48.922;9.444;2023-04-07T13:42:04;7.77;;;4.60;;
7517;SDS011;3800;48.922;9.444;2023-04-07T13:44:33;5.80;;;4.70;;
7517;SDS011;3800;48.922;9.444;2023-04-07T13:47:02;4.77;;;4.17;;
7517;SDS011;3800;48.922;9.444;2023-04-07T13:49:31;6.40;;;4.93;;
7517;SDS011;3800;48.922;9.444;2023-04-07T13:51:59;6.27;;;4.90;;
7517;SDS011;3800;48.922;9.444;2023-04-07T13:54:27;8.47;;;5.87;;
7517;SDS011;3800;48.922;9.444;2023-04-07T13:56:56;6.90;;;4.80;;
7517;SDS011;3800;48.922;9.444;2023-04-07T13:59:24;6.77;;;4.67;;
7517;SDS011;3800;48.922;9.444;2023-04-07T14:01:52;5.47;;;4.40;;
7517;SDS011;3800;48.922;9.444;2023-04-07T14:04:20;6.77;;;4.53;;
7517;SDS011;3800;48.922;9.444;2023-04-07T14:06:49;6.73;;;4.20;;
7517;SDS011;3800;48.922;9.444;2023-04-07T14:09:17;5.63;;;4.50;;
7517;SDS011;3800;48.922;9.444;2023-04-07T14:11:46;6.67;;;4.47;;
7517;SDS011;3800;48.922;9.444;2023-04-07T14:14:14;6.00;;;5.10;;
7517;SDS011;3800;48.922;9.444;2023-04-07T14:16:43;4.93;;;4.17;;
7517;SDS011;3800;48.922;9.444;2023-04-07T14:19:11;8.00;;;4.60;;
7517;SDS011;3800;48.922;9.444;2023-04-07T14:21:40;6.27;;;4.60;;
7517;SDS011;3800;48.922;9.444;2023-04-07T14:24:08;5.57;;;4.17;;
7517;SDS011;3800;48.922;9.444;2023-04-07T14:26:36;6.40;;;4.30;;
7517;SDS011;3800;48.922;9.444;2023-04-07T14:29:04;8.33;;;4.00;;
7517;SDS011;3800;48.922;9.444;2023-04-07T14:31:33;6.30;;;4.20;;
7517;SDS011;3800;48.922;9.444;2023-04-07T14:34:01;4.70;;;3.73;;
7517;SDS011;3800;48.922;9.444;2023-04-07T14:36:29;5.00;;;3.80;;
7517;SDS011;3800;48.922;9.444;2023-04-07T14:38:57;7.63;;;4.30;;
7517;SDS011;3800;48.922;9.444;2023-04-07T14:41:26;4.17;;;3.70;;
7517;SDS011;3800;48.922;9.444;2023-04-07T14:43:54;4.80;;;3.30;;
7517;SDS011;3800;48.922;9.444;2023-04-07T14:46:23;5.30;;;3.77;;
7517;SDS011;3800;48.922;9.444;2023-04-07T14:48:53;6.37;;;3.80;;
7517;SDS011;3800;48.922;9.444;2023-04-07T14:51:22;4.70;;;3.73;;
7517;SDS011;3800;48.922;9.444;2023-04-07T14:53:50;4.73;;;3.77;;
7517;SDS011;3800;48.922;9.444;2023-04-07T14:56:18;6.13;;;3.80;;
7517;SDS011;3800;48.922;9.444;2023-04-07T14:58:46;4.97;;;3.67;;
7517;SDS011;3800;48.922;9.444;2023-04-07T15:01:15;6.17;;;3.40;;
7517;SDS011;3800;48.922;9.444;2023-04-07T15:03:43;4.67;;;3.90;;
7517;SDS011;3800;48.922;9.444;2023-04-07T15:06:11;6.77;;;3.97;;
7517;SDS011;3800;48.922;9.444;2023-04-07T15:08:39;5.57;;;3.30;;
7517;SDS011;3800;48.922;9.444;2023-04-07T15:11:08;5.03;;;3.60;;
7517;SDS011;3800;48.922;9.444;2023-04-07T15:13:36;4.00;;;2.90;;
7517;SDS011;3800;48.922;9.444;2023-04-07T15:16:05;3.53;;;3.20;;
7517;SDS011;3800;48.922;9.444;2023-04-07T15:18:33;4.23;;;2.90;;
7517;SDS011;3800;48.922;9.444;2023-04-07T15:21:03;4.07;;;2.67;;
7517;SDS011;3800;48.922;9.444;2023-04-07T15:23:32;3.03;;;2.67;;
7517;SDS011;3800;48.922;9.444;2023-04-07T15:26:00;3.93;;;3.07;;
7517;SDS011;3800;48.922;9.444;2023-04-07T15:28:28;4.40;;;3.80;;
7517;SDS011;3800;48.922;9.444;2023-04-07T15:30:57;6.67;;;4.43;;
7517;SDS011;3800;48.922;9.444;2023-04-07T15:33:25;8.67;;;5.00;;
7517;SDS011;3800;48.922;9.444;2023-04-07T15:35:53;7.23;;;5.20;;
7517;SDS011;3800;48.922;9.444;2023-04-07T15:38:21;4.33;;;2.83;;
7517;SDS011;3800;48.922;9.444;2023-04-07T15:40:50;5.30;;;3.50;;
7517;SDS011;3800;48.922;9.444;2023-04-07T15:43:18;4.80;;;3.13;;